sensor_id;sensor_type;location;lat;lon;timestamp;pressure;altitude;pressure_sealevel;temperature;humidity
59106;BME280;44891;50.204;8.132;2022-07-06T00:01:15;98949.66;;;16.58;62.32
59106;BME280;44891;50.204;8.132;2022-07-06T00:05:18;98963.19;;;16.67;61.66
59106;BME280;44891;50.204;8.132;2022-07-06T00:09:20;98940.03;;;16.47;62.08
59106;BME280;44891;50.204;8.132;2022-07-06T00:13:23;98964.47;;;16.54;61.68
59106;BME280;44891;50.204;8.132;2022-07-06T00:17:25;98962.06;;;16.48;61.79
59106;BME280;44891;50.204;8.132;2022-07-06T00:21:28;98959.13;;;16.49;61.25
59106;BME280;44891;50.204;8.132;2022-07-06T00:25:30;98960.78;;;16.61;60.93
59106;BME280;44891;50.204;8.132;2022-07-06T00:29:33;98955.94;;;16.47;61.19
59106;BME280;44891;50.204;8.132;2022-07-06T00:33:35;98953.53;;;16.41;61.19
59106;BME280;44891;50.204;8.132;2022-07-06T00:37:38;98960.31;;;16.21;61.97
59106;BME280;44891;50.204;8.132;2022-07-06T00:41:40;98966.75;;;16.36;61.92
59106;BME280;44891;50.204;8.132;2022-07-06T00:45:43;98944.38;;;16.11;62.39
59106;BME280;44891;50.204;8.132;2022-07-06T00:49:46;98957.84;;;16.04;62.76
59106;BME280;44891;50.204;8.132;2022-07-06T00:54:05;98974.50;;;16.00;62.61
59106;BME280;44891;50.204;8.132;2022-07-06T00:58:08;98960.53;;;15.77;63.11
59106;BME280;44891;50.204;8.132;2022-07-06T01:02:12;98956.16;;;15.61;63.42
59106;BME280;44891;50.204;8.132;2022-07-06T01:06:15;98934.22;;;15.34;64.07
59106;BME280;44891;50.204;8.132;2022-07-06T01:10:19;98966.78;;;15.34;65.52
59106;BME280;44891;50.204;8.132;2022-07-06T01:14:22;98968.53;;;15.56;64.35
59106;BME280;44891;50.204;8.132;2022-07-06T01:18:26;98969.25;;;15.46;64.55
59106;BME280;44891;50.204;8.132;2022-07-06T01:22:30;98974.50;;;15.41;64.77
59106;BME280;44891;50.204;8.132;2022-07-06T01:26:32;98974.63;;;15.56;64.24
59106;BME280;44891;50.204;8.132;2022-07-06T01:30:35;98965.06;;;15.23;64.74
59106;BME280;44891;50.204;8.132;2022-07-06T01:34:37;98973.34;;;15.32;64.77
59106;BME280;44891;50.204;8.132;2022-07-06T01:38:45;98980.25;;;15.33;64.78
59106;BME280;44891;50.204;8.132;2022-07-06T01:42:47;98957.88;;;15.18;64.83
59106;BME280;44891;50.204;8.132;2022-07-06T01:46:49;98972.53;;;15.04;65.59
59106;BME280;44891;50.204;8.132;2022-07-06T01:50:52;98963.09;;;14.86;66.24
59106;BME280;44891;50.204;8.132;2022-07-06T01:54:56;98973.25;;;14.94;65.84
59106;BME280;44891;50.204;8.132;2022-07-06T01:58:59;98963.47;;;14.95;65.65
59106;BME280;44891;50.204;8.132;2022-07-06T02:03:01;98963.13;;;14.91;65.59
59106;BME280;44891;50.204;8.132;2022-07-06T02:07:03;98960.41;;;14.81;65.78
59106;BME280;44891;50.204;8.132;2022-07-06T02:11:08;98963.47;;;14.95;65.79
59106;BME280;44891;50.204;8.132;2022-07-06T02:15:13;98957.22;;;14.79;66.11
59106;BME280;44891;50.204;8.132;2022-07-06T02:19:15;98970.34;;;14.74;66.53
59106;BME280;44891;50.204;8.132;2022-07-06T02:23:18;98972.25;;;14.79;66.84
59106;BME280;44891;50.204;8.132;2022-07-06T02:27:21;98961.66;;;14.79;66.37
59106;BME280;44891;50.204;8.132;2022-07-06T02:31:24;98960.03;;;14.73;66.42
59106;BME280;44891;50.204;8.132;2022-07-06T02:35:26;98972.13;;;14.68;67.21
59106;BME280;44891;50.204;8.132;2022-07-06T02:39:29;98965.56;;;14.49;67.97
59106;BME280;44891;50.204;8.132;2022-07-06T02:43:33;98955.66;;;14.61;67.71
59106;BME280;44891;50.204;8.132;2022-07-06T02:47:35;98961.56;;;14.68;67.28
59106;BME280;44891;50.204;8.132;2022-07-06T02:51:38;98974.59;;;14.36;68.79
59106;BME280;44891;50.204;8.132;2022-07-06T02:55:41;98972.81;;;14.42;68.54
59106;BME280;44891;50.204;8.132;2022-07-06T02:59:45;98950.91;;;14.25;67.96
59106;BME280;44891;50.204;8.132;2022-07-06T03:03:50;98986.22;;;14.19;69.03
59106;BME280;44891;50.204;8.132;2022-07-06T03:07:53;98987.69;;;14.09;69.32
59106;BME280;44891;50.204;8.132;2022-07-06T03:11:55;98989.19;;;14.05;69.21
59106;BME280;44891;50.204;8.132;2022-07-06T03:15:59;98995.94;;;13.96;70.09
59106;BME280;44891;50.204;8.132;2022-07-06T03:20:04;98981.78;;;13.85;70.03
59106;BME280;44891;50.204;8.132;2022-07-06T03:24:07;99000.09;;;13.92;69.98
59106;BME280;44891;50.204;8.132;2022-07-06T03:28:09;98997.44;;;13.58;71.20
59106;BME280;44891;50.204;8.132;2022-07-06T03:32:13;98999.75;;;13.55;71.54
59106;BME280;44891;50.204;8.132;2022-07-06T03:36:16;98995.22;;;13.22;73.12
59106;BME280;44891;50.204;8.132;2022-07-06T03:40:18;99007.81;;;13.48;72.48
59106;BME280;44891;50.204;8.132;2022-07-06T03:44:22;99019.19;;;13.66;71.54
59106;BME280;44891;50.204;8.132;2022-07-06T03:48:26;99024.09;;;13.74;71.34
59106;BME280;44891;50.204;8.132;2022-07-06T03:52:29;99006.56;;;13.68;71.11
59106;BME280;44891;50.204;8.132;2022-07-06T03:56:31;99002.41;;;13.72;69.97
59106;BME280;44891;50.204;8.132;2022-07-06T04:00:40;99033.78;;;13.85;70.44
59106;BME280;44891;50.204;8.132;2022-07-06T04:04:49;99040.13;;;14.01;70.46
59106;BME280;44891;50.204;8.132;2022-07-06T04:08:52;99029.31;;;14.02;69.99
59106;BME280;44891;50.204;8.132;2022-07-06T04:12:55;99041.88;;;14.12;69.69
59106;BME280;44891;50.204;8.132;2022-07-06T04:16:57;99057.22;;;13.98;70.61
59106;BME280;44891;50.204;8.132;2022-07-06T04:21:02;99046.38;;;13.95;70.06
59106;BME280;44891;50.204;8.132;2022-07-06T04:25:06;99054.22;;;14.06;70.14
59106;BME280;44891;50.204;8.132;2022-07-06T04:29:09;99050.69;;;14.18;69.64
59106;BME280;44891;50.204;8.132;2022-07-06T04:33:13;99049.81;;;14.29;69.76
59106;BME280;44891;50.204;8.132;2022-07-06T04:37:18;99040.66;;;14.36;68.85
59106;BME280;44891;50.204;8.132;2022-07-06T04:41:21;99061.63;;;14.43;68.90
59106;BME280;44891;50.204;8.132;2022-07-06T04:45:25;99065.31;;;14.59;68.40
59106;BME280;44891;50.204;8.132;2022-07-06T04:49:28;99052.66;;;14.44;68.17
59106;BME280;44891;50.204;8.132;2022-07-06T04:53:32;99037.41;;;14.46;67.72
59106;BME280;44891;50.204;8.132;2022-07-06T04:57:34;99068.28;;;14.62;67.19
59106;BME280;44891;50.204;8.132;2022-07-06T05:01:37;99035.41;;;14.75;65.83
59106;BME280;44891;50.204;8.132;2022-07-06T05:05:41;99071.34;;;14.93;66.41
59106;BME280;44891;50.204;8.132;2022-07-06T05:09:45;99068.28;;;15.01;65.54
59106;BME280;44891;50.204;8.132;2022-07-06T05:13:48;99065.56;;;14.96;65.92
59106;BME280;44891;50.204;8.132;2022-07-06T05:17:51;99074.66;;;15.05;65.55
59106;BME280;44891;50.204;8.132;2022-07-06T05:21:54;99076.53;;;15.27;64.40
59106;BME280;44891;50.204;8.132;2022-07-06T05:25:58;99069.50;;;15.15;64.18
59106;BME280;44891;50.204;8.132;2022-07-06T05:30:01;99088.09;;;15.20;63.45
59106;BME280;44891;50.204;8.132;2022-07-06T05:34:05;99077.50;;;15.20;63.02
59106;BME280;44891;50.204;8.132;2022-07-06T05:38:08;99085.19;;;15.00;64.98
59106;BME280;44891;50.204;8.132;2022-07-06T05:42:12;99087.03;;;15.00;65.56
59106;BME280;44891;50.204;8.132;2022-07-06T05:46:16;99089.56;;;15.11;64.45
59106;BME280;44891;50.204;8.132;2022-07-06T05:50:19;99077.25;;;15.00;64.62
59106;BME280;44891;50.204;8.132;2022-07-06T05:54:28;99077.00;;;15.02;64.18
59106;BME280;44891;50.204;8.132;2022-07-06T05:58:32;99094.38;;;15.14;63.99
59106;BME280;44891;50.204;8.132;2022-07-06T06:02:39;99087.97;;;15.10;64.01
59106;BME280;44891;50.204;8.132;2022-07-06T06:06:43;99081.63;;;14.89;64.98
59106;BME280;44891;50.204;8.132;2022-07-06T06:10:46;99085.41;;;14.99;64.67
59106;BME280;44891;50.204;8.132;2022-07-06T06:14:54;99015.34;;;14.57;64.37
59106;BME280;44891;50.204;8.132;2022-07-06T06:18:56;99054.38;;;14.89;63.77
59106;BME280;44891;50.204;8.132;2022-07-06T06:22:59;99082.47;;;15.17;63.87
59106;BME280;44891;50.204;8.132;2022-07-06T06:27:03;99057.88;;;15.16;63.68
59106;BME280;44891;50.204;8.132;2022-07-06T06:31:07;99073.06;;;15.48;62.20
59106;BME280;44891;50.204;8.132;2022-07-06T06:35:09;99078.94;;;15.77;61.03
59106;BME280;44891;50.204;8.132;2022-07-06T06:39:11;99070.09;;;15.44;61.26
59106;BME280;44891;50.204;8.132;2022-07-06T06:43:14;99079.09;;;15.43;60.89
59106;BME280;44891;50.204;8.132;2022-07-06T06:47:53;99065.66;;;15.50;60.12
59106;BME280;44891;50.204;8.132;2022-07-06T06:51:55;99052.13;;;15.24;60.69
59106;BME280;44891;50.204;8.132;2022-07-06T06:55:57;99087.34;;;15.47;58.82
59106;BME280;44891;50.204;8.132;2022-07-06T06:59:59;99096.78;;;15.87;59.09
59106;BME280;44891;50.204;8.132;2022-07-06T07:04:03;99091.94;;;16.11;57.20
59106;BME280;44891;50.204;8.132;2022-07-06T07:08:06;99101.63;;;16.27;56.24
59106;BME280;44891;50.204;8.132;2022-07-06T07:12:09;99093.72;;;16.00;56.11
59106;BME280;44891;50.204;8.132;2022-07-06T07:16:12;99090.91;;;16.12;55.09
59106;BME280;44891;50.204;8.132;2022-07-06T07:20:16;99095.81;;;16.67;53.70
59106;BME280;44891;50.204;8.132;2022-07-06T07:24:18;99100.41;;;16.40;54.03
59106;BME280;44891;50.204;8.132;2022-07-06T07:28:21;99102.38;;;16.22;55.64
59106;BME280;44891;50.204;8.132;2022-07-06T07:32:23;99057.72;;;15.77;56.71
59106;BME280;44891;50.204;8.132;2022-07-06T07:36:26;99099.81;;;16.33;55.78
59106;BME280;44891;50.204;8.132;2022-07-06T07:40:29;99106.66;;;16.28;55.39
59106;BME280;44891;50.204;8.132;2022-07-06T07:44:31;99095.59;;;16.37;54.44
59106;BME280;44891;50.204;8.132;2022-07-06T07:48:33;99104.69;;;16.46;53.21
59106;BME280;44891;50.204;8.132;2022-07-06T07:52:38;99108.03;;;16.68;51.64
59106;BME280;44891;50.204;8.132;2022-07-06T07:56:40;99103.66;;;16.84;51.78
59106;BME280;44891;50.204;8.132;2022-07-06T08:00:42;99090.63;;;16.82;51.52
59106;BME280;44891;50.204;8.132;2022-07-06T08:04:44;99090.19;;;17.01;50.62
59106;BME280;44891;50.204;8.132;2022-07-06T08:08:48;99088.88;;;17.03;50.50
59106;BME280;44891;50.204;8.132;2022-07-06T08:12:50;99079.53;;;16.96;50.57
59106;BME280;44891;50.204;8.132;2022-07-06T08:16:52;99092.31;;;16.62;51.49
59106;BME280;44891;50.204;8.132;2022-07-06T08:20:55;99098.84;;;16.81;51.44
59106;BME280;44891;50.204;8.132;2022-07-06T08:24:59;99102.38;;;16.97;50.22
59106;BME280;44891;50.204;8.132;2022-07-06T08:29:01;99114.72;;;16.71;50.76
59106;BME280;44891;50.204;8.132;2022-07-06T08:33:03;99098.09;;;16.85;51.41
59106;BME280;44891;50.204;8.132;2022-07-06T08:37:05;99097.38;;;17.88;49.73
59106;BME280;44891;50.204;8.132;2022-07-06T08:41:09;99100.03;;;17.78;48.48
59106;BME280;44891;50.204;8.132;2022-07-06T08:45:13;99108.00;;;17.78;48.66
59106;BME280;44891;50.204;8.132;2022-07-06T08:49:16;99104.44;;;17.47;49.71
59106;BME280;44891;50.204;8.132;2022-07-06T08:53:18;99097.09;;;17.70;49.45
59106;BME280;44891;50.204;8.132;2022-07-06T08:57:24;99099.31;;;17.20;51.13
59106;BME280;44891;50.204;8.132;2022-07-06T09:01:27;99086.41;;;17.59;49.03
59106;BME280;44891;50.204;8.132;2022-07-06T09:05:30;99101.41;;;17.91;49.14
59106;BME280;44891;50.204;8.132;2022-07-06T09:09:36;99110.97;;;18.07;49.29
59106;BME280;44891;50.204;8.132;2022-07-06T09:13:40;99107.50;;;17.76;49.13
59106;BME280;44891;50.204;8.132;2022-07-06T09:17:43;99102.69;;;17.78;47.94
59106;BME280;44891;50.204;8.132;2022-07-06T09:21:45;99105.66;;;18.12;47.79
59106;BME280;44891;50.204;8.132;2022-07-06T09:25:48;99100.34;;;18.23;47.51
59106;BME280;44891;50.204;8.132;2022-07-06T09:29:52;99095.56;;;18.30;46.72
59106;BME280;44891;50.204;8.132;2022-07-06T09:33:56;99094.75;;;18.50;46.55
59106;BME280;44891;50.204;8.132;2022-07-06T09:38:03;99091.56;;;18.27;46.90
59106;BME280;44891;50.204;8.132;2022-07-06T09:42:07;99093.41;;;18.62;45.32
59106;BME280;44891;50.204;8.132;2022-07-06T09:46:14;99099.78;;;18.66;44.83
59106;BME280;44891;50.204;8.132;2022-07-06T09:50:17;99105.34;;;18.80;44.83
59106;BME280;44891;50.204;8.132;2022-07-06T09:54:19;99110.97;;;18.73;44.35
59106;BME280;44891;50.204;8.132;2022-07-06T09:58:22;99097.78;;;19.18;44.65
59106;BME280;44891;50.204;8.132;2022-07-06T10:02:26;99100.53;;;18.97;44.62
59106;BME280;44891;50.204;8.132;2022-07-06T10:06:29;99098.66;;;19.68;43.89
59106;BME280;44891;50.204;8.132;2022-07-06T10:10:32;99093.47;;;19.27;43.82
59106;BME280;44891;50.204;8.132;2022-07-06T10:14:34;99087.81;;;18.59;45.86
59106;BME280;44891;50.204;8.132;2022-07-06T10:18:37;99098.25;;;19.35;44.54
59106;BME280;44891;50.204;8.132;2022-07-06T10:22:41;99099.16;;;19.10;44.24
59106;BME280;44891;50.204;8.132;2022-07-06T10:26:43;99095.84;;;19.34;45.28
59106;BME280;44891;50.204;8.132;2022-07-06T10:30:47;99096.19;;;19.76;44.38
59106;BME280;44891;50.204;8.132;2022-07-06T10:34:52;99106.75;;;19.42;45.23
59106;BME280;44891;50.204;8.132;2022-07-06T10:38:55;99105.19;;;19.31;45.54
59106;BME280;44891;50.204;8.132;2022-07-06T10:42:58;99099.97;;;19.65;43.96
59106;BME280;44891;50.204;8.132;2022-07-06T10:47:00;99095.44;;;20.39;42.79
59106;BME280;44891;50.204;8.132;2022-07-06T10:51:04;99100.25;;;19.64;42.65
59106;BME280;44891;50.204;8.132;2022-07-06T10:55:07;99104.56;;;19.99;41.76
59106;BME280;44891;50.204;8.132;2022-07-06T10:59:09;99096.75;;;20.42;41.40
59106;BME280;44891;50.204;8.132;2022-07-06T11:03:31;99097.28;;;20.09;41.69
59106;BME280;44891;50.204;8.132;2022-07-06T11:07:48;99097.75;;;20.22;40.94
59106;BME280;44891;50.204;8.132;2022-07-06T11:11:50;99097.28;;;20.09;40.94
59106;BME280;44891;50.204;8.132;2022-07-06T11:16:00;99098.75;;;20.26;41.29
59106;BME280;44891;50.204;8.132;2022-07-06T11:20:09;99086.09;;;20.71;38.55
59106;BME280;44891;50.204;8.132;2022-07-06T11:24:15;99091.66;;;20.98;38.38
59106;BME280;44891;50.204;8.132;2022-07-06T11:28:17;99098.19;;;21.11;38.68
59106;BME280;44891;50.204;8.132;2022-07-06T11:32:23;99094.88;;;20.47;40.32
59106;BME280;44891;50.204;8.132;2022-07-06T11:36:26;99090.88;;;20.98;38.99
59106;BME280;44891;50.204;8.132;2022-07-06T11:40:30;99087.25;;;21.55;37.79
59106;BME280;44891;50.204;8.132;2022-07-06T11:44:32;99092.34;;;20.85;41.22
59106;BME280;44891;50.204;8.132;2022-07-06T11:48:35;99099.81;;;20.88;41.74
59106;BME280;44891;50.204;8.132;2022-07-06T11:52:37;99094.09;;;20.71;42.40
59106;BME280;44891;50.204;8.132;2022-07-06T11:56:47;99097.97;;;20.83;41.46
59106;BME280;44891;50.204;8.132;2022-07-06T12:01:08;99087.31;;;21.07;40.40
59106;BME280;44891;50.204;8.132;2022-07-06T12:05:10;99082.50;;;20.56;40.99
59106;BME280;44891;50.204;8.132;2022-07-06T12:09:12;99081.16;;;20.25;41.99
59106;BME280;44891;50.204;8.132;2022-07-06T12:13:17;99074.66;;;20.65;41.42
59106;BME280;44891;50.204;8.132;2022-07-06T12:17:19;99065.09;;;20.88;40.50
59106;BME280;44891;50.204;8.132;2022-07-06T12:21:21;99068.28;;;20.90;39.83
59106;BME280;44891;50.204;8.132;2022-07-06T12:25:30;99074.38;;;21.38;39.12
59106;BME280;44891;50.204;8.132;2022-07-06T12:29:34;99068.22;;;20.95;39.16
59106;BME280;44891;50.204;8.132;2022-07-06T12:33:36;99070.84;;;21.81;37.52
59106;BME280;44891;50.204;8.132;2022-07-06T12:37:38;99061.34;;;21.13;38.38
59106;BME280;44891;50.204;8.132;2022-07-06T12:41:45;99062.34;;;21.60;38.54
59106;BME280;44891;50.204;8.132;2022-07-06T12:45:49;99050.38;;;21.90;37.75
59106;BME280;44891;50.204;8.132;2022-07-06T12:50:04;99055.31;;;22.62;35.31
59106;BME280;44891;50.204;8.132;2022-07-06T12:54:13;99052.22;;;22.08;36.58
59106;BME280;44891;50.204;8.132;2022-07-06T12:58:18;99059.81;;;22.20;36.11
59106;BME280;44891;50.204;8.132;2022-07-06T13:02:23;99040.16;;;22.11;36.35
59106;BME280;44891;50.204;8.132;2022-07-06T13:06:33;99055.34;;;21.96;37.93
59106;BME280;44891;50.204;8.132;2022-07-06T13:14:47;99064.63;;;21.48;39.55
59106;BME280;44891;50.204;8.132;2022-07-06T13:18:51;99056.66;;;22.32;37.21
59106;BME280;44891;50.204;8.132;2022-07-06T13:22:53;99052.78;;;22.05;38.28
59106;BME280;44891;50.204;8.132;2022-07-06T13:26:55;99055.00;;;21.84;38.31
59106;BME280;44891;50.204;8.132;2022-07-06T13:30:58;99064.09;;;21.27;38.87
59106;BME280;44891;50.204;8.132;2022-07-06T13:35:01;99044.31;;;21.65;38.10
59106;BME280;44891;50.204;8.132;2022-07-06T13:39:03;99048.78;;;21.13;39.13
59106;BME280;44891;50.204;8.132;2022-07-06T13:43:06;99054.38;;;21.55;39.33
59106;BME280;44891;50.204;8.132;2022-07-06T13:47:08;99036.69;;;21.40;39.09
59106;BME280;44891;50.204;8.132;2022-07-06T13:51:11;99050.66;;;21.13;39.34
59106;BME280;44891;50.204;8.132;2022-07-06T13:55:13;99042.16;;;21.30;39.10
59106;BME280;44891;50.204;8.132;2022-07-06T13:59:15;99035.81;;;22.15;37.11
59106;BME280;44891;50.204;8.132;2022-07-06T14:03:18;99038.59;;;22.23;37.34
59106;BME280;44891;50.204;8.132;2022-07-06T14:07:21;99029.44;;;22.71;36.14
59106;BME280;44891;50.204;8.132;2022-07-06T14:11:23;99033.31;;;23.06;35.23
59106;BME280;44891;50.204;8.132;2022-07-06T14:15:25;99013.25;;;22.21;36.35
59106;BME280;44891;50.204;8.132;2022-07-06T14:19:28;99004.34;;;22.80;36.18
59106;BME280;44891;50.204;8.132;2022-07-06T14:23:31;98998.06;;;22.30;35.45
59106;BME280;44891;50.204;8.132;2022-07-06T14:27:33;98990.84;;;22.31;36.79
59106;BME280;44891;50.204;8.132;2022-07-06T14:31:36;98990.56;;;22.32;36.15
59106;BME280;44891;50.204;8.132;2022-07-06T14:35:39;98993.25;;;22.32;36.16
59106;BME280;44891;50.204;8.132;2022-07-06T14:39:43;98987.31;;;21.70;37.69
59106;BME280;44891;50.204;8.132;2022-07-06T14:43:46;98995.22;;;21.61;38.03
59106;BME280;44891;50.204;8.132;2022-07-06T14:47:49;98990.16;;;21.92;37.86
59106;BME280;44891;50.204;8.132;2022-07-06T14:51:51;98992.69;;;21.13;39.63
59106;BME280;44891;50.204;8.132;2022-07-06T14:55:54;98994.75;;;21.16;39.57
59106;BME280;44891;50.204;8.132;2022-07-06T14:59:56;98990.72;;;21.00;39.64
59106;BME280;44891;50.204;8.132;2022-07-06T15:03:58;98985.53;;;21.28;39.87
59106;BME280;44891;50.204;8.132;2022-07-06T15:08:00;98989.94;;;20.76;40.03
59106;BME280;44891;50.204;8.132;2022-07-06T15:12:05;98988.91;;;20.72;41.01
59106;BME280;44891;50.204;8.132;2022-07-06T15:16:07;98993.72;;;21.12;40.06
59106;BME280;44891;50.204;8.132;2022-07-06T15:20:11;98980.22;;;20.85;40.47
59106;BME280;44891;50.204;8.132;2022-07-06T15:24:13;98985.44;;;21.14;39.89
59106;BME280;44891;50.204;8.132;2022-07-06T15:28:16;98984.56;;;21.00;40.25
59106;BME280;44891;50.204;8.132;2022-07-06T15:32:20;98989.94;;;20.76;40.37
59106;BME280;44891;50.204;8.132;2022-07-06T15:36:23;98969.69;;;21.69;39.48
59106;BME280;44891;50.204;8.132;2022-07-06T15:40:25;98971.00;;;21.85;39.11
59106;BME280;44891;50.204;8.132;2022-07-06T15:44:31;98970.09;;;21.76;39.18
59106;BME280;44891;50.204;8.132;2022-07-06T15:48:33;98963.09;;;20.67;40.35
59106;BME280;44891;50.204;8.132;2022-07-06T15:52:35;98959.56;;;20.90;40.22
59106;BME280;44891;50.204;8.132;2022-07-06T15:56:38;98950.44;;;21.15;39.84
59106;BME280;44891;50.204;8.132;2022-07-06T16:00:41;98953.31;;;21.00;39.82
59106;BME280;44891;50.204;8.132;2022-07-06T16:04:43;98950.16;;;21.36;39.58
59106;BME280;44891;50.204;8.132;2022-07-06T16:08:46;98945.38;;;20.95;39.99
59106;BME280;44891;50.204;8.132;2022-07-06T16:12:48;98942.78;;;21.28;39.72
59106;BME280;44891;50.204;8.132;2022-07-06T16:16:52;98941.06;;;21.37;39.62
59106;BME280;44891;50.204;8.132;2022-07-06T16:20:54;98926.03;;;21.03;39.86
59106;BME280;44891;50.204;8.132;2022-07-06T16:24:56;98936.03;;;20.92;39.76
59106;BME280;44891;50.204;8.132;2022-07-06T16:28:59;98917.22;;;21.03;39.44
59106;BME280;44891;50.204;8.132;2022-07-06T16:33:03;98923.38;;;21.41;38.88
59106;BME280;44891;50.204;8.132;2022-07-06T16:37:05;98925.28;;;21.54;38.46
59106;BME280;44891;50.204;8.132;2022-07-06T16:41:07;98919.22;;;21.49;38.81
59106;BME280;44891;50.204;8.132;2022-07-06T16:45:09;98917.66;;;20.91;39.91
59106;BME280;44891;50.204;8.132;2022-07-06T16:49:13;98925.69;;;21.61;38.68
59106;BME280;44891;50.204;8.132;2022-07-06T16:53:15;98929.66;;;20.94;39.64
59106;BME280;44891;50.204;8.132;2022-07-06T16:57:17;98922.84;;;21.01;39.39
59106;BME280;44891;50.204;8.132;2022-07-06T17:01:19;98915.16;;;20.57;40.29
59106;BME280;44891;50.204;8.132;2022-07-06T17:05:23;98918.88;;;20.99;39.90
59106;BME280;44891;50.204;8.132;2022-07-06T17:09:25;98923.19;;;20.76;39.81
59106;BME280;44891;50.204;8.132;2022-07-06T17:13:27;98919.22;;;20.54;40.22
59106;BME280;44891;50.204;8.132;2022-07-06T17:17:31;98916.78;;;20.05;40.90
59106;BME280;44891;50.204;8.132;2022-07-06T17:21:34;98914.19;;;20.24;40.82
59106;BME280;44891;50.204;8.132;2022-07-06T17:25:36;98917.25;;;20.12;41.28
59106;BME280;44891;50.204;8.132;2022-07-06T17:29:38;98900.34;;;20.22;40.86
59106;BME280;44891;50.204;8.132;2022-07-06T17:33:40;98916.28;;;20.27;41.32
59106;BME280;44891;50.204;8.132;2022-07-06T17:37:44;98910.88;;;20.32;41.47
59106;BME280;44891;50.204;8.132;2022-07-06T17:41:46;98915.22;;;20.28;40.62
59106;BME280;44891;50.204;8.132;2022-07-06T17:45:48;98911.56;;;20.19;40.75
59106;BME280;44891;50.204;8.132;2022-07-06T17:49:50;98912.72;;;20.36;41.18
59106;BME280;44891;50.204;8.132;2022-07-06T17:53:54;98915.94;;;20.33;41.27
59106;BME280;44891;50.204;8.132;2022-07-06T17:57:56;98914.16;;;20.29;41.16
59106;BME280;44891;50.204;8.132;2022-07-06T18:01:58;98906.72;;;20.02;41.24
59106;BME280;44891;50.204;8.132;2022-07-06T18:06:00;98912.72;;;19.89;41.67
59106;BME280;44891;50.204;8.132;2022-07-06T18:10:06;98908.03;;;19.41;42.96
59106;BME280;44891;50.204;8.132;2022-07-06T18:14:08;98912.97;;;19.58;42.66
59106;BME280;44891;50.204;8.132;2022-07-06T18:18:10;98904.63;;;19.70;42.82
59106;BME280;44891;50.204;8.132;2022-07-06T18:22:12;98904.19;;;19.58;43.18
59106;BME280;44891;50.204;8.132;2022-07-06T18:26:16;98901.53;;;19.58;43.04
59106;BME280;44891;50.204;8.132;2022-07-06T18:30:18;98912.31;;;19.37;43.63
59106;BME280;44891;50.204;8.132;2022-07-06T18:34:21;98908.88;;;19.32;43.29
59106;BME280;44891;50.204;8.132;2022-07-06T18:38:23;98908.97;;;19.21;43.61
59106;BME280;44891;50.204;8.132;2022-07-06T18:42:26;98905.09;;;19.04;44.11
59106;BME280;44891;50.204;8.132;2022-07-06T18:46:28;98905.16;;;18.93;44.49
59106;BME280;44891;50.204;8.132;2022-07-06T18:50:31;98907.31;;;18.86;44.53
59106;BME280;44891;50.204;8.132;2022-07-06T18:54:33;98901.22;;;18.81;44.75
59106;BME280;44891;50.204;8.132;2022-07-06T18:58:36;98900.91;;;18.87;44.87
59106;BME280;44891;50.204;8.132;2022-07-06T19:02:38;98904.97;;;18.74;45.81
59106;BME280;44891;50.204;8.132;2022-07-06T19:06:40;98891.72;;;18.59;46.68
59106;BME280;44891;50.204;8.132;2022-07-06T19:10:42;98899.47;;;18.56;47.21
59106;BME280;44891;50.204;8.132;2022-07-06T19:14:47;98907.78;;;18.39;47.41
59106;BME280;44891;50.204;8.132;2022-07-06T19:18:53;98906.31;;;17.97;48.75
59106;BME280;44891;50.204;8.132;2022-07-06T19:22:55;98906.06;;;17.68;49.50
59106;BME280;44891;50.204;8.132;2022-07-06T19:26:58;98905.00;;;17.49;50.54
59106;BME280;44891;50.204;8.132;2022-07-06T19:31:02;98909.53;;;17.43;50.13
59106;BME280;44891;50.204;8.132;2022-07-06T19:35:05;98915.88;;;17.27;50.62
59106;BME280;44891;50.204;8.132;2022-07-06T19:39:07;98908.19;;;17.20;51.39
59106;BME280;44891;50.204;8.132;2022-07-06T19:43:09;98919.84;;;17.14;51.87
59106;BME280;44891;50.204;8.132;2022-07-06T19:47:13;98925.41;;;16.97;52.75
59106;BME280;44891;50.204;8.132;2022-07-06T19:51:15;98919.28;;;16.92;52.50
59106;BME280;44891;50.204;8.132;2022-07-06T19:55:17;98923.91;;;16.59;53.59
59106;BME280;44891;50.204;8.132;2022-07-06T19:59:19;98933.44;;;16.55;53.61
59106;BME280;44891;50.204;8.132;2022-07-06T20:03:23;98935.25;;;16.39;54.04
59106;BME280;44891;50.204;8.132;2022-07-06T20:07:26;98928.53;;;16.26;54.66
59106;BME280;44891;50.204;8.132;2022-07-06T20:11:29;98925.25;;;16.09;55.55
59106;BME280;44891;50.204;8.132;2022-07-06T20:15:31;98933.78;;;16.11;55.35
59106;BME280;44891;50.204;8.132;2022-07-06T20:19:35;98929.22;;;16.07;55.46
59106;BME280;44891;50.204;8.132;2022-07-06T20:23:37;98930.38;;;15.84;55.95
59106;BME280;44891;50.204;8.132;2022-07-06T20:27:39;98927.91;;;15.40;57.11
59106;BME280;44891;50.204;8.132;2022-07-06T20:31:41;98932.88;;;15.63;56.46
59106;BME280;44891;50.204;8.132;2022-07-06T20:35:45;98932.66;;;15.65;57.05
59106;BME280;44891;50.204;8.132;2022-07-06T20:39:47;98925.00;;;15.68;56.71
59106;BME280;44891;50.204;8.132;2022-07-06T20:43:49;98934.06;;;15.77;57.21
59106;BME280;44891;50.204;8.132;2022-07-06T20:47:51;98929.06;;;15.81;57.03
59106;BME280;44891;50.204;8.132;2022-07-06T20:51:55;98925.44;;;15.92;56.85
59106;BME280;44891;50.204;8.132;2022-07-06T20:55:57;98927.31;;;15.97;56.95
59106;BME280;44891;50.204;8.132;2022-07-06T21:00:00;98926.19;;;15.88;57.71
59106;BME280;44891;50.204;8.132;2022-07-06T21:04:02;98922.13;;;15.75;58.21
59106;BME280;44891;50.204;8.132;2022-07-06T21:08:06;98911.25;;;15.71;58.28
59106;BME280;44891;50.204;8.132;2022-07-06T21:12:09;98913.06;;;15.66;58.47
59106;BME280;44891;50.204;8.132;2022-07-06T21:16:11;98918.28;;;15.61;58.84
59106;BME280;44891;50.204;8.132;2022-07-06T21:20:13;98909.97;;;15.47;59.04
59106;BME280;44891;50.204;8.132;2022-07-06T21:24:16;98910.47;;;15.44;59.12
59106;BME280;44891;50.204;8.132;2022-07-06T21:28:18;98910.59;;;15.59;59.34
59106;BME280;44891;50.204;8.132;2022-07-06T21:32:21;98902.75;;;15.69;58.86